Burton, Idaho
Current Conditions -  °F | °C
As of 5:53 PM on Monday 22 Dec 2014 (Local Time) from KRXE Reporting Station
Clear Clear  
Wind Chill: 24°   Ceiling: Unl
Heat Index: 31°   Visibility: 10mi
Dew Point: 19°   Wind: 7mph
Humidity: 61%   Direction: 320°NW
Pressure: 30.07"   Gusts: NA
Location:  43.7568°N, 111.624°W
Report Text: KRXE 230053Z AUTO 32006KT 10SM CLR M01/M07 A3007 RMK AO2 SLP205 T10061072
Loading
Personal Weather Stations






























Interactive Weather Map New forecast layout! Learn more

10-Day Weather Forecast

Advertisements
Track Severe Weather on mobile